sensor_id;sensor_type;location;lat;lon;timestamp;pressure;altitude;pressure_sealevel;temperature;humidity
61324;BME280;47203;48.428;11.974;2023-03-31T00:01:16;96380.72;;;12.27;54.63
61324;BME280;47203;48.428;11.974;2023-03-31T00:03:21;96377.31;;;12.27;54.45
61324;BME280;47203;48.428;11.974;2023-03-31T00:05:26;96372.50;;;12.29;54.59
61324;BME280;47203;48.428;11.974;2023-03-31T00:07:34;96370.66;;;12.29;54.67
61324;BME280;47203;48.428;11.974;2023-03-31T00:09:39;96359.81;;;12.31;54.51
61324;BME280;47203;48.428;11.974;2023-03-31T00:11:47;96363.25;;;12.31;54.34
61324;BME280;47203;48.428;11.974;2023-03-31T00:13:52;96360.63;;;12.31;54.73
61324;BME280;47203;48.428;11.974;2023-03-31T00:15:59;96358.75;;;12.32;54.48
61324;BME280;47203;48.428;11.974;2023-03-31T00:18:07;96349.25;;;12.31;54.59
61324;BME280;47203;48.428;11.974;2023-03-31T00:20:13;96350.06;;;12.31;54.75
61324;BME280;47203;48.428;11.974;2023-03-31T00:22:18;96343.97;;;12.31;54.65
61324;BME280;47203;48.428;11.974;2023-03-31T00:24:23;96340.28;;;12.32;54.59
61324;BME280;47203;48.428;11.974;2023-03-31T00:26:28;96342.91;;;12.32;54.87
61324;BME280;47203;48.428;11.974;2023-03-31T00:28:33;96336.06;;;12.31;54.59
61324;BME280;47203;48.428;11.974;2023-03-31T00:30:38;96331.88;;;12.30;54.94
61324;BME280;47203;48.428;11.974;2023-03-31T00:32:43;96331.06;;;12.29;54.98
61324;BME280;47203;48.428;11.974;2023-03-31T00:34:51;96337.94;;;12.30;54.99
61324;BME280;47203;48.428;11.974;2023-03-31T00:36:56;96322.09;;;12.30;54.66
61324;BME280;47203;48.428;11.974;2023-03-31T00:39:05;96320.75;;;12.33;54.94
61324;BME280;47203;48.428;11.974;2023-03-31T00:41:10;96318.31;;;12.36;54.69
61324;BME280;47203;48.428;11.974;2023-03-31T00:43:25;96315.97;;;12.35;54.90
61324;BME280;47203;48.428;11.974;2023-03-31T00:45:30;96315.38;;;12.38;54.53
61324;BME280;47203;48.428;11.974;2023-03-31T00:47:36;96300.63;;;12.37;54.64
61324;BME280;47203;48.428;11.974;2023-03-31T00:49:44;96300.63;;;12.37;54.91
61324;BME280;47203;48.428;11.974;2023-03-31T00:51:56;96299.53;;;12.38;54.62
61324;BME280;47203;48.428;11.974;2023-03-31T00:54:05;96294.84;;;12.35;54.91
61324;BME280;47203;48.428;11.974;2023-03-31T00:56:13;96289.56;;;12.35;54.79
61324;BME280;47203;48.428;11.974;2023-03-31T00:58:22;96288.50;;;12.36;54.79
61324;BME280;47203;48.428;11.974;2023-03-31T01:00:29;96298.78;;;12.37;54.81
61324;BME280;47203;48.428;11.974;2023-03-31T01:02:34;96285.88;;;12.36;54.64
61324;BME280;47203;48.428;11.974;2023-03-31T01:04:46;96279.28;;;12.33;54.64
61324;BME280;47203;48.428;11.974;2023-03-31T01:07:03;96276.47;;;12.30;54.75
61324;BME280;47203;48.428;11.974;2023-03-31T01:09:10;96282.78;;;12.29;54.52
61324;BME280;47203;48.428;11.974;2023-03-31T01:11:20;96275.16;;;12.27;54.68
61324;BME280;47203;48.428;11.974;2023-03-31T01:13:26;96271.75;;;12.27;54.51
61324;BME280;47203;48.428;11.974;2023-03-31T01:15:33;96264.91;;;12.26;54.60
61324;BME280;47203;48.428;11.974;2023-03-31T01:17:39;96255.13;;;12.26;54.67
61324;BME280;47203;48.428;11.974;2023-03-31T01:19:56;96249.06;;;12.26;54.70
61324;BME280;47203;48.428;11.974;2023-03-31T01:22:44;96233.53;;;12.24;54.91
61324;BME280;47203;48.428;11.974;2023-03-31T01:27:58;96240.38;;;12.25;54.86
61324;BME280;47203;48.428;11.974;2023-03-31T01:38:38;96228.88;;;12.16;54.53
61324;BME280;47203;48.428;11.974;2023-03-31T01:41:07;96230.47;;;12.17;54.84
61324;BME280;47203;48.428;11.974;2023-03-31T01:43:22;96224.41;;;12.16;54.89
61324;BME280;47203;48.428;11.974;2023-03-31T01:45:39;96220.69;;;12.17;54.64
61324;BME280;47203;48.428;11.974;2023-03-31T01:47:51;96219.03;;;12.21;54.50
61324;BME280;47203;48.428;11.974;2023-03-31T01:50:04;96215.81;;;12.25;54.57
61324;BME280;47203;48.428;11.974;2023-03-31T01:52:16;96209.97;;;12.28;54.59
61324;BME280;47203;48.428;11.974;2023-03-31T01:54:29;96201.00;;;12.29;54.83
61324;BME280;47203;48.428;11.974;2023-03-31T01:56:45;96198.84;;;12.31;54.51
61324;BME280;47203;48.428;11.974;2023-03-31T01:58:57;96189.56;;;12.33;54.68
61324;BME280;47203;48.428;11.974;2023-03-31T02:01:09;96197.72;;;12.37;54.77
61324;BME280;47203;48.428;11.974;2023-03-31T02:03:22;96192.91;;;12.39;54.70
61324;BME280;47203;48.428;11.974;2023-03-31T02:05:34;96191.84;;;12.40;54.57
61324;BME280;47203;48.428;11.974;2023-03-31T02:07:45;96192.63;;;12.40;54.71
61324;BME280;47203;48.428;11.974;2023-03-31T02:09:56;96183.94;;;12.40;54.43
61324;BME280;47203;48.428;11.974;2023-03-31T02:12:08;96169.94;;;12.39;54.56
61324;BME280;47203;48.428;11.974;2023-03-31T02:14:17;96166.25;;;12.40;54.21
61324;BME280;47203;48.428;11.974;2023-03-31T02:16:25;96164.38;;;12.41;54.27
61324;BME280;47203;48.428;11.974;2023-03-31T02:18:33;96165.94;;;12.42;54.68
61324;BME280;47203;48.428;11.974;2023-03-31T02:20:41;96164.38;;;12.41;54.73
61324;BME280;47203;48.428;11.974;2023-03-31T02:22:49;96161.47;;;12.43;54.42
61324;BME280;47203;48.428;11.974;2023-03-31T02:24:57;96152.75;;;12.42;54.56
61324;BME280;47203;48.428;11.974;2023-03-31T02:27:11;96153.81;;;12.41;54.41
61324;BME280;47203;48.428;11.974;2023-03-31T02:29:18;96153.81;;;12.41;54.54
61324;BME280;47203;48.428;11.974;2023-03-31T02:31:27;96143.56;;;12.39;54.53
61324;BME280;47203;48.428;11.974;2023-03-31T02:33:33;96145.13;;;12.40;54.64
61324;BME280;47203;48.428;11.974;2023-03-31T02:35:38;96140.63;;;12.41;54.29
61324;BME280;47203;48.428;11.974;2023-03-31T02:37:43;96143.56;;;12.39;54.66
61324;BME280;47203;48.428;11.974;2023-03-31T02:39:52;96142.78;;;12.39;54.38
61324;BME280;47203;48.428;11.974;2023-03-31T02:41:59;96150.97;;;12.37;54.48
61324;BME280;47203;48.428;11.974;2023-03-31T02:44:11;96141.00;;;12.34;54.55
61324;BME280;47203;48.428;11.974;2023-03-31T02:46:16;96141.78;;;12.35;54.46
61324;BME280;47203;48.428;11.974;2023-03-31T02:48:24;96139.16;;;12.35;54.46
61324;BME280;47203;48.428;11.974;2023-03-31T02:50:42;96129.09;;;12.37;54.47
61324;BME280;47203;48.428;11.974;2023-03-31T02:52:57;96120.09;;;12.38;54.43
61324;BME280;47203;48.428;11.974;2023-03-31T02:58:14;96128.22;;;12.42;54.62
61324;BME280;47203;48.428;11.974;2023-03-31T03:00:35;96126.66;;;12.40;54.68
61324;BME280;47203;48.428;11.974;2023-03-31T03:02:52;96128.22;;;12.42;54.40
61324;BME280;47203;48.428;11.974;2023-03-31T03:05:13;96129.00;;;12.42;54.65
61324;BME280;47203;48.428;11.974;2023-03-31T03:07:47;96122.16;;;12.41;54.32
61324;BME280;47203;48.428;11.974;2023-03-31T03:09:59;96123.25;;;12.40;54.51
61324;BME280;47203;48.428;11.974;2023-03-31T03:12:12;96117.66;;;12.42;54.42
61324;BME280;47203;48.428;11.974;2023-03-31T03:14:27;96119.25;;;12.43;54.63
61324;BME280;47203;48.428;11.974;2023-03-31T03:16:41;96115.50;;;12.44;54.27
61324;BME280;47203;48.428;11.974;2023-03-31T03:18:54;96117.38;;;12.43;54.38
61324;BME280;47203;48.428;11.974;2023-03-31T03:20:59;96126.28;;;12.47;54.35
61324;BME280;47203;48.428;11.974;2023-03-31T03:23:04;96117.28;;;12.48;54.35
61324;BME280;47203;48.428;11.974;2023-03-31T03:25:11;96122.78;;;12.52;54.47
61324;BME280;47203;48.428;11.974;2023-03-31T03:27:18;96116.44;;;12.53;54.32
61324;BME280;47203;48.428;11.974;2023-03-31T03:29:23;96109.28;;;12.53;54.17
61324;BME280;47203;48.428;11.974;2023-03-31T03:31:28;96109.00;;;12.55;54.52
61324;BME280;47203;48.428;11.974;2023-03-31T03:33:37;96108.69;;;12.56;54.25
61324;BME280;47203;48.428;11.974;2023-03-31T03:35:42;96106.06;;;12.56;54.28
61324;BME280;47203;48.428;11.974;2023-03-31T03:37:47;96109.47;;;12.57;54.22
61324;BME280;47203;48.428;11.974;2023-03-31T03:39:52;96106.34;;;12.55;54.39
61324;BME280;47203;48.428;11.974;2023-03-31T03:41:57;96120.59;;;12.54;54.39
61324;BME280;47203;48.428;11.974;2023-03-31T03:44:02;96114.34;;;12.50;54.70
61324;BME280;47203;48.428;11.974;2023-03-31T03:46:07;96117.09;;;12.45;54.73
61324;BME280;47203;48.428;11.974;2023-03-31T03:48:12;96130.88;;;12.42;54.78
61324;BME280;47203;48.428;11.974;2023-03-31T03:50:20;96126.47;;;12.37;55.13
61324;BME280;47203;48.428;11.974;2023-03-31T03:52:25;96119.13;;;12.34;54.90
61324;BME280;47203;48.428;11.974;2023-03-31T03:54:30;96129.94;;;12.32;55.06
61324;BME280;47203;48.428;11.974;2023-03-31T03:56:35;96125.25;;;12.29;54.86
61324;BME280;47203;48.428;11.974;2023-03-31T03:58:40;96129.28;;;12.27;55.04
61324;BME280;47203;48.428;11.974;2023-03-31T04:00:45;96132.19;;;12.25;55.34
61324;BME280;47203;48.428;11.974;2023-03-31T04:02:50;96130.91;;;12.22;55.15
61324;BME280;47203;48.428;11.974;2023-03-31T04:04:55;96128.56;;;12.21;55.36
61324;BME280;47203;48.428;11.974;2023-03-31T04:07:03;96127.06;;;12.15;55.45
61324;BME280;47203;48.428;11.974;2023-03-31T04:09:08;96122.88;;;12.14;55.50
61324;BME280;47203;48.428;11.974;2023-03-31T04:11:14;96123.66;;;12.14;55.72
61324;BME280;47203;48.428;11.974;2023-03-31T04:13:20;96115.72;;;12.14;55.64
61324;BME280;47203;48.428;11.974;2023-03-31T04:15:26;96113.88;;;12.15;55.40
61324;BME280;47203;48.428;11.974;2023-03-31T04:17:31;96101.47;;;12.15;55.52
61324;BME280;47203;48.428;11.974;2023-03-31T04:19:37;96101.47;;;12.15;55.66
61324;BME280;47203;48.428;11.974;2023-03-31T04:21:43;96096.19;;;12.15;55.70
61324;BME280;47203;48.428;11.974;2023-03-31T04:23:54;96087.78;;;12.13;56.17
61324;BME280;47203;48.428;11.974;2023-03-31T04:26:03;96084.38;;;12.13;55.98
61324;BME280;47203;48.428;11.974;2023-03-31T04:28:09;96078.81;;;12.14;55.92
61324;BME280;47203;48.428;11.974;2023-03-31T04:30:16;96077.44;;;12.17;56.21
61324;BME280;47203;48.428;11.974;2023-03-31T04:32:23;96083.19;;;12.19;56.08
61324;BME280;47203;48.428;11.974;2023-03-31T04:34:29;96094.25;;;12.21;56.33
61324;BME280;47203;48.428;11.974;2023-03-31T04:36:38;96088.69;;;12.22;56.63
61324;BME280;47203;48.428;11.974;2023-03-31T04:38:49;96079.69;;;12.23;56.63
61324;BME280;47203;48.428;11.974;2023-03-31T04:40:58;96084.97;;;12.23;56.48
61324;BME280;47203;48.428;11.974;2023-03-31T04:43:03;96079.91;;;12.27;56.57
61324;BME280;47203;48.428;11.974;2023-03-31T04:45:09;96079.63;;;12.29;56.57
61324;BME280;47203;48.428;11.974;2023-03-31T04:47:15;96072.47;;;12.29;56.65
61324;BME280;47203;48.428;11.974;2023-03-31T04:49:20;96065.66;;;12.28;56.78
61324;BME280;47203;48.428;11.974;2023-03-31T04:51:26;96062.72;;;12.30;56.86
61324;BME280;47203;48.428;11.974;2023-03-31T04:53:31;96055.56;;;12.30;56.79
61324;BME280;47203;48.428;11.974;2023-03-31T04:55:36;96054.22;;;12.33;57.08
61324;BME280;47203;48.428;11.974;2023-03-31T04:57:44;96038.69;;;12.31;57.02
61324;BME280;47203;48.428;11.974;2023-03-31T04:59:48;96026.25;;;12.32;57.34
61324;BME280;47203;48.428;11.974;2023-03-31T05:01:53;96036.81;;;12.32;57.28
61324;BME280;47203;48.428;11.974;2023-03-31T05:03:58;96027.31;;;12.31;57.41
61324;BME280;47203;48.428;11.974;2023-03-31T05:06:04;96027.31;;;12.31;57.46
61324;BME280;47203;48.428;11.974;2023-03-31T05:08:09;96018.94;;;12.29;57.51
61324;BME280;47203;48.428;11.974;2023-03-31T05:10:14;96033.19;;;12.28;57.69
61324;BME280;47203;48.428;11.974;2023-03-31T05:12:20;96022.16;;;12.26;57.79
61324;BME280;47203;48.428;11.974;2023-03-31T05:14:28;95996.06;;;12.24;58.13
61324;BME280;47203;48.428;11.974;2023-03-31T05:16:33;95987.09;;;12.25;57.96
61324;BME280;47203;48.428;11.974;2023-03-31T05:18:38;95983.66;;;12.25;58.04
61324;BME280;47203;48.428;11.974;2023-03-31T05:20:43;95969.69;;;12.24;57.89
61324;BME280;47203;48.428;11.974;2023-03-31T05:22:48;95974.97;;;12.24;58.08
61324;BME280;47203;48.428;11.974;2023-03-31T05:24:53;95960.97;;;12.23;58.38
61324;BME280;47203;48.428;11.974;2023-03-31T05:26:58;95946.72;;;12.25;58.44
61324;BME280;47203;48.428;11.974;2023-03-31T05:29:03;95947.00;;;12.23;58.18
61324;BME280;47203;48.428;11.974;2023-03-31T05:31:11;95940.66;;;12.24;58.52
61324;BME280;47203;48.428;11.974;2023-03-31T05:33:16;95926.66;;;12.23;58.68
61324;BME280;47203;48.428;11.974;2023-03-31T05:35:21;95915.34;;;12.23;58.60
61324;BME280;47203;48.428;11.974;2023-03-31T05:37:27;95921.69;;;12.22;58.82
61324;BME280;47203;48.428;11.974;2023-03-31T05:39:32;95903.50;;;12.20;58.77
61324;BME280;47203;48.428;11.974;2023-03-31T05:41:37;95896.41;;;12.21;58.76
61324;BME280;47203;48.428;11.974;2023-03-31T05:43:42;95893.47;;;12.22;58.78
61324;BME280;47203;48.428;11.974;2023-03-31T05:45:47;95888.97;;;12.23;58.73
61324;BME280;47203;48.428;11.974;2023-03-31T05:47:55;95883.38;;;12.25;58.82
61324;BME280;47203;48.428;11.974;2023-03-31T05:50:00;95882.03;;;12.27;59.10
61324;BME280;47203;48.428;11.974;2023-03-31T05:52:09;95888.88;;;12.28;59.12
61324;BME280;47203;48.428;11.974;2023-03-31T05:54:14;95871.94;;;12.29;58.84
61324;BME280;47203;48.428;11.974;2023-03-31T05:56:19;95862.38;;;12.33;58.74
61324;BME280;47203;48.428;11.974;2023-03-31T05:58:25;95844.09;;;12.37;58.87
61324;BME280;47203;48.428;11.974;2023-03-31T06:00:30;95832.94;;;12.40;59.07
61324;BME280;47203;48.428;11.974;2023-03-31T06:02:36;95819.16;;;12.43;59.05
61324;BME280;47203;48.428;11.974;2023-03-31T06:04:45;95815.44;;;12.44;59.03
61324;BME280;47203;48.428;11.974;2023-03-31T06:06:51;95810.34;;;12.48;58.93
61324;BME280;47203;48.428;11.974;2023-03-31T06:08:56;95813.94;;;12.52;59.03
61324;BME280;47203;48.428;11.974;2023-03-31T06:11:03;95808.06;;;12.55;59.08
61324;BME280;47203;48.428;11.974;2023-03-31T06:13:09;95804.06;;;12.57;58.93
61324;BME280;47203;48.428;11.974;2023-03-31T06:15:14;95791.03;;;12.61;58.99
61324;BME280;47203;48.428;11.974;2023-03-31T06:17:19;95783.59;;;12.63;58.91
61324;BME280;47203;48.428;11.974;2023-03-31T06:19:25;95781.13;;;12.67;58.95
61324;BME280;47203;48.428;11.974;2023-03-31T06:21:32;95767.31;;;12.70;59.24
61324;BME280;47203;48.428;11.974;2023-03-31T06:23:37;95760.38;;;12.74;58.92
61324;BME280;47203;48.428;11.974;2023-03-31T06:25:45;95757.13;;;12.77;58.84
61324;BME280;47203;48.428;11.974;2023-03-31T06:27:52;95756.81;;;12.79;58.88
61324;BME280;47203;48.428;11.974;2023-03-31T06:29:58;95749.88;;;12.83;58.79
61324;BME280;47203;48.428;11.974;2023-03-31T06:32:03;95746.63;;;12.86;58.66
61324;BME280;47203;48.428;11.974;2023-03-31T06:34:08;95744.47;;;12.88;58.92
61324;BME280;47203;48.428;11.974;2023-03-31T06:36:15;95747.56;;;12.90;59.02
61324;BME280;47203;48.428;11.974;2023-03-31T06:38:23;95728.00;;;12.91;58.83
61324;BME280;47203;48.428;11.974;2023-03-31T06:40:28;95718.38;;;12.95;59.02
61324;BME280;47203;48.428;11.974;2023-03-31T06:42:33;95723.84;;;12.99;59.01
61324;BME280;47203;48.428;11.974;2023-03-31T06:44:38;95723.25;;;13.02;59.08
61324;BME280;47203;48.428;11.974;2023-03-31T06:46:43;95724.97;;;13.06;58.81
61324;BME280;47203;48.428;11.974;2023-03-31T06:48:48;95707.75;;;13.09;58.95
61324;BME280;47203;48.428;11.974;2023-03-31T06:50:55;95713.97;;;13.13;58.83
61324;BME280;47203;48.428;11.974;2023-03-31T06:53:00;95727.97;;;13.14;59.01
61324;BME280;47203;48.428;11.974;2023-03-31T06:55:09;95726.56;;;13.16;58.93
61324;BME280;47203;48.428;11.974;2023-03-31T06:57:16;95714.31;;;13.20;58.87
61324;BME280;47203;48.428;11.974;2023-03-31T06:59:25;95696.59;;;13.21;58.92
61324;BME280;47203;48.428;11.974;2023-03-31T07:01:30;95694.72;;;13.21;59.09
61324;BME280;47203;48.428;11.974;2023-03-31T07:03:38;95695.50;;;13.22;59.03
61324;BME280;47203;48.428;11.974;2023-03-31T07:05:47;95688.34;;;13.22;59.15
61324;BME280;47203;48.428;11.974;2023-03-31T07:07:53;95676.88;;;13.27;58.95
61324;BME280;47203;48.428;11.974;2023-03-31T07:09:58;95682.31;;;13.31;59.01
61324;BME280;47203;48.428;11.974;2023-03-31T07:12:06;95691.53;;;13.33;58.84
61324;BME280;47203;48.428;11.974;2023-03-31T07:14:11;95709.13;;;13.38;58.74
61324;BME280;47203;48.428;11.974;2023-03-31T07:16:18;95718.59;;;13.39;58.72
61324;BME280;47203;48.428;11.974;2023-03-31T07:18:24;95728.09;;;13.40;58.80
61324;BME280;47203;48.428;11.974;2023-03-31T07:20:35;95743.47;;;13.38;58.65
61324;BME280;47203;48.428;11.974;2023-03-31T07:22:41;95758.34;;;13.34;58.70
61324;BME280;47203;48.428;11.974;2023-03-31T07:24:46;95769.53;;;13.31;59.01
61324;BME280;47203;48.428;11.974;2023-03-31T07:26:52;95787.84;;;13.27;59.05
61324;BME280;47203;48.428;11.974;2023-03-31T07:28:59;95815.34;;;13.17;59.07
61324;BME280;47203;48.428;11.974;2023-03-31T07:31:10;95816.50;;;13.11;59.05
61324;BME280;47203;48.428;11.974;2023-03-31T07:33:15;95832.66;;;13.09;59.42
61324;BME280;47203;48.428;11.974;2023-03-31T07:35:21;95846.97;;;13.08;59.57
61324;BME280;47203;48.428;11.974;2023-03-31T07:37:26;95840.13;;;13.07;59.15
61324;BME280;47203;48.428;11.974;2023-03-31T07:39:32;95833.28;;;13.06;59.44
61324;BME280;47203;48.428;11.974;2023-03-31T07:41:37;95839.34;;;13.07;59.48
61324;BME280;47203;48.428;11.974;2023-03-31T07:43:43;95847.84;;;13.04;59.49
61324;BME280;47203;48.428;11.974;2023-03-31T07:45:53;95840.38;;;12.97;59.54
61324;BME280;47203;48.428;11.974;2023-03-31T07:47:58;95831.94;;;12.95;59.59
61324;BME280;47203;48.428;11.974;2023-03-31T07:50:04;95853.69;;;12.92;59.98
61324;BME280;47203;48.428;11.974;2023-03-31T07:52:09;95865.16;;;12.87;60.16
61324;BME280;47203;48.428;11.974;2023-03-31T07:54:14;95866.34;;;12.81;59.96
61324;BME280;47203;48.428;11.974;2023-03-31T07:56:20;95860.91;;;12.78;60.12
61324;BME280;47203;48.428;11.974;2023-03-31T07:58:25;95856.19;;;12.74;60.26
61324;BME280;47203;48.428;11.974;2023-03-31T08:00:31;95852.63;;;12.70;60.11
61324;BME280;47203;48.428;11.974;2023-03-31T08:02:39;95829.44;;;12.67;60.61
61324;BME280;47203;48.428;11.974;2023-03-31T08:04:46;95801.94;;;12.68;60.37
61324;BME280;47203;48.428;11.974;2023-03-31T08:06:51;95772.91;;;12.68;60.50
61324;BME280;47203;48.428;11.974;2023-03-31T08:08:56;95744.84;;;12.72;60.61
61324;BME280;47203;48.428;11.974;2023-03-31T08:11:02;95742.84;;;12.78;60.69
61324;BME280;47203;48.428;11.974;2023-03-31T08:13:07;95729.22;;;12.85;60.30
61324;BME280;47203;48.428;11.974;2023-03-31T08:15:12;95724.88;;;12.89;60.36
61324;BME280;47203;48.428;11.974;2023-03-31T08:17:17;95721.03;;;12.95;60.64
61324;BME280;47203;48.428;11.974;2023-03-31T08:19:25;95711.09;;;13.01;60.72
61324;BME280;47203;48.428;11.974;2023-03-31T08:21:30;95717.03;;;13.06;60.88
61324;BME280;47203;48.428;11.974;2023-03-31T08:23:35;95702.47;;;13.09;60.78
61324;BME280;47203;48.428;11.974;2023-03-31T08:25:41;95702.03;;;13.16;60.69
61324;BME280;47203;48.428;11.974;2023-03-31T08:27:45;95696.75;;;13.16;60.32
61324;BME280;47203;48.428;11.974;2023-03-31T08:29:52;95683.22;;;13.17;60.64
61324;BME280;47203;48.428;11.974;2023-03-31T08:31:56;95678.41;;;13.19;60.19
61324;BME280;47203;48.428;11.974;2023-03-31T08:34:02;95667.84;;;13.19;60.21
61324;BME280;47203;48.428;11.974;2023-03-31T08:36:10;95661.78;;;13.19;60.38
61324;BME280;47203;48.428;11.974;2023-03-31T08:38:15;95660.84;;;13.23;60.60
61324;BME280;47203;48.428;11.974;2023-03-31T08:40:23;95651.25;;;13.27;60.64
61324;BME280;47203;48.428;11.974;2023-03-31T08:42:35;95640.81;;;13.31;60.71
61324;BME280;47203;48.428;11.974;2023-03-31T08:44:45;95627.28;;;13.33;60.17
61324;BME280;47203;48.428;11.974;2023-03-31T08:46:55;95616.13;;;13.36;60.29
61324;BME280;47203;48.428;11.974;2023-03-31T08:49:02;95615.50;;;13.39;60.20
61324;BME280;47203;48.428;11.974;2023-03-31T08:51:14;95617.06;;;13.40;60.37
61324;BME280;47203;48.428;11.974;2023-03-31T08:53:25;95602.03;;;13.40;60.30
61324;BME280;47203;48.428;11.974;2023-03-31T08:55:46;95591.59;;;13.44;60.38
61324;BME280;47203;48.428;11.974;2023-03-31T08:57:57;95593.31;;;13.49;60.30
61324;BME280;47203;48.428;11.974;2023-03-31T09:00:04;95591.13;;;13.51;60.31
61324;BME280;47203;48.428;11.974;2023-03-31T09:02:17;95609.03;;;13.54;59.89
61324;BME280;47203;48.428;11.974;2023-03-31T09:04:42;95615.84;;;13.55;59.83
61324;BME280;47203;48.428;11.974;2023-03-31T09:06:59;95623.78;;;13.55;59.87
61324;BME280;47203;48.428;11.974;2023-03-31T09:09:10;95634.84;;;13.57;59.95
61324;BME280;47203;48.428;11.974;2023-03-31T09:11:28;95668.72;;;13.55;59.79
61324;BME280;47203;48.428;11.974;2023-03-31T09:16:04;95705.28;;;13.61;59.85
61324;BME280;47203;48.428;11.974;2023-03-31T09:18:20;95728.47;;;13.65;59.75
61324;BME280;47203;48.428;11.974;2023-03-31T09:20:33;95764.25;;;13.71;59.66
61324;BME280;47203;48.428;11.974;2023-03-31T09:22:44;95734.22;;;13.75;59.78
61324;BME280;47203;48.428;11.974;2023-03-31T09:24:56;95719.00;;;13.81;60.02
61324;BME280;47203;48.428;11.974;2023-03-31T09:27:06;95691.66;;;13.86;59.90
61324;BME280;47203;48.428;11.974;2023-03-31T09:29:16;95681.66;;;13.91;59.72
61324;BME280;47203;48.428;11.974;2023-03-31T09:31:26;95678.72;;;13.93;60.12
61324;BME280;47203;48.428;11.974;2023-03-31T09:33:31;95678.13;;;13.96;59.97
61324;BME280;47203;48.428;11.974;2023-03-31T09:35:36;95687.28;;;13.99;59.91
61324;BME280;47203;48.428;11.974;2023-03-31T09:37:46;95685.88;;;14.01;60.09
61324;BME280;47203;48.428;11.974;2023-03-31T09:39:51;95668.44;;;14.09;60.17
61324;BME280;47203;48.428;11.974;2023-03-31T09:41:56;95686.97;;;14.18;60.17
61324;BME280;47203;48.428;11.974;2023-03-31T09:44:02;95661.59;;;14.25;59.90
61324;BME280;47203;48.428;11.974;2023-03-31T09:46:15;95655.19;;;14.35;59.88
61324;BME280;47203;48.428;11.974;2023-03-31T09:48:24;95646.75;;;14.51;59.82
61324;BME280;47203;48.428;11.974;2023-03-31T09:50:29;95634.56;;;14.76;59.58
61324;BME280;47203;48.428;11.974;2023-03-31T09:52:39;95643.41;;;15.18;59.32
61324;BME280;47203;48.428;11.974;2023-03-31T09:54:49;95622.75;;;15.63;59.18
61324;BME280;47203;48.428;11.974;2023-03-31T09:56:54;95617.97;;;15.98;58.49
61324;BME280;47203;48.428;11.974;2023-03-31T09:59:01;95622.59;;;16.22;57.53
61324;BME280;47203;48.428;11.974;2023-03-31T10:01:06;95630.50;;;16.44;57.40
61324;BME280;47203;48.428;11.974;2023-03-31T10:03:12;95638.66;;;16.72;56.87
61324;BME280;47203;48.428;11.974;2023-03-31T10:05:27;95630.50;;;17.02;56.56
61324;BME280;47203;48.428;11.974;2023-03-31T10:07:34;95624.81;;;17.40;56.34
61324;BME280;47203;48.428;11.974;2023-03-31T10:09:40;95626.47;;;17.70;56.03
61324;BME280;47203;48.428;11.974;2023-03-31T10:12:01;95623.16;;;18.01;55.17
61324;BME280;47203;48.428;11.974;2023-03-31T10:14:12;95641.22;;;18.36;54.40
61324;BME280;47203;48.428;11.974;2023-03-31T10:16:21;95631.03;;;18.70;53.31
61324;BME280;47203;48.428;11.974;2023-03-31T10:18:32;95632.28;;;19.05;52.96
61324;BME280;47203;48.428;11.974;2023-03-31T10:20:42;95632.75;;;19.42;52.49
61324;BME280;47203;48.428;11.974;2023-03-31T10:22:47;95628.84;;;19.75;51.54
61324;BME280;47203;48.428;11.974;2023-03-31T10:24:53;95632.13;;;20.04;50.79
61324;BME280;47203;48.428;11.974;2023-03-31T10:27:01;95624.81;;;20.20;50.62
61324;BME280;47203;48.428;11.974;2023-03-31T10:29:11;95633.75;;;20.28;50.21
61324;BME280;47203;48.428;11.974;2023-03-31T10:31:16;95621.19;;;20.32;49.86
61324;BME280;47203;48.428;11.974;2023-03-31T10:33:25;95608.50;;;20.26;49.73
61324;BME280;47203;48.428;11.974;2023-03-31T10:35:33;95605.91;;;20.10;49.03
61324;BME280;47203;48.428;11.974;2023-03-31T10:37:39;95602.56;;;19.93;49.09
61324;BME280;47203;48.428;11.974;2023-03-31T10:39:44;95587.50;;;19.85;49.50
61324;BME280;47203;48.428;11.974;2023-03-31T10:41:50;95581.31;;;19.81;49.20
61324;BME280;47203;48.428;11.974;2023-03-31T10:44:00;95568.25;;;19.76;49.72
61324;BME280;47203;48.428;11.974;2023-03-31T10:46:08;95572.78;;;19.75;50.28
61324;BME280;47203;48.428;11.974;2023-03-31T10:48:19;95555.66;;;19.76;49.89
61324;BME280;47203;48.428;11.974;2023-03-31T10:50:29;95542.03;;;19.81;50.51
61324;BME280;47203;48.428;11.974;2023-03-31T10:52:43;95534.81;;;19.82;48.96
61324;BME280;47203;48.428;11.974;2023-03-31T10:54:52;95540.56;;;19.84;48.04
61324;BME280;47203;48.428;11.974;2023-03-31T10:57:00;95535.53;;;19.79;48.52
61324;BME280;47203;48.428;11.974;2023-03-31T10:59:23;95520.88;;;19.73;48.31
61324;BME280;47203;48.428;11.974;2023-03-31T11:01:39;95532.25;;;19.69;48.11
61324;BME280;47203;48.428;11.974;2023-03-31T11:04:04;95543.38;;;19.71;48.24
61324;BME280;47203;48.428;11.974;2023-03-31T11:06:19;95539.19;;;19.74;48.12
61324;BME280;47203;48.428;11.974;2023-03-31T11:08:35;95533.09;;;19.74;48.27
61324;BME280;47203;48.428;11.974;2023-03-31T11:11:05;95519.25;;;19.68;47.61
61324;BME280;47203;48.428;11.974;2023-03-31T11:13:18;95513.03;;;19.60;48.01
61324;BME280;47203;48.428;11.974;2023-03-31T11:15:32;95508.25;;;19.50;48.03
61324;BME280;47203;48.428;11.974;2023-03-31T11:17:52;95506.41;;;19.34;47.69
61324;BME280;47203;48.428;11.974;2023-03-31T11:20:14;95495.88;;;19.22;48.25
61324;BME280;47203;48.428;11.974;2023-03-31T11:22:29;95496.13;;;19.17;48.14
61324;BME280;47203;48.428;11.974;2023-03-31T11:24:56;95478.09;;;19.10;48.78
61324;BME280;47203;48.428;11.974;2023-03-31T11:27:23;95477.81;;;18.96;49.20
61324;BME280;47203;48.428;11.974;2023-03-31T11:29:34;95483.66;;;18.86;48.57